Time;durP1;ratioP1;P1;durP2;ratioP2;P2;SDS_P1;SDS_P2;PMS_P1;PMS_P2;Temp;Humidity;BMP_temperature;BMP_pressure;BME280_temperature;BME280_humidity;BME280_pressure;Samples;Min_cycle;Max_cycle;Signal;HPM_P1;HPM_P2
2022/10/16 00:02:14;;;;;;;3.97;3.57;;;17.10;99.90;;;;;;5041306;28;20476;-61
2022/10/16 00:04:41;;;;;;;7.57;4.37;;;17.10;99.90;;;;;;5062757;28;20484;-63
2022/10/16 00:07:07;;;;;;;6.27;5.13;;;17.20;99.90;;;;;;5045961;28;20510;-62
2022/10/16 00:09:34;;;;;;;5.03;3.30;;;17.20;99.90;;;;;;5050376;28;20645;-62
2022/10/16 00:12:03;;;;;;;9.10;6.30;;;17.20;99.90;;;;;;5039434;28;20478;-62
2022/10/16 00:14:30;;;;;;;10.60;3.10;;;17.20;99.90;;;;;;5064305;28;20450;-63
2022/10/16 00:16:57;;;;;;;6.53;5.83;;;17.10;99.90;;;;;;5045421;28;21137;-63
2022/10/16 00:19:24;;;;;;;7.10;3.50;;;17.20;99.90;;;;;;5049806;28;20483;-62
2022/10/16 00:21:50;;;;;;;18.50;3.70;;;17.30;99.90;;;;;;5049026;28;20482;-63
2022/10/16 00:24:17;;;;;;;6.10;4.03;;;17.40;99.90;;;;;;5048818;28;20480;-62
2022/10/16 00:26:44;;;;;;;5.30;4.33;;;17.40;99.90;;;;;;5045125;28;20479;-62
2022/10/16 00:29:12;;;;;;;7.77;3.03;;;17.40;99.90;;;;;;5048013;28;20830;-62
2022/10/16 00:31:39;;;;;;;6.77;4.07;;;17.30;99.90;;;;;;5049031;28;20689;-62
2022/10/16 00:34:06;;;;;;;6.50;5.90;;;17.30;99.90;;;;;;5049641;28;21863;-62
2022/10/16 00:36:32;;;;;;;17.00;3.20;;;17.30;99.90;;;;;;5046690;28;21046;-62
2022/10/16 00:39:00;;;;;;;8.30;6.20;;;17.30;99.90;;;;;;5047558;28;20483;-62
2022/10/16 00:41:27;;;;;;;2.47;2.27;;;17.30;99.90;;;;;;5047102;28;20467;-62
2022/10/16 00:43:56;;;;;;;21.63;4.83;;;17.40;99.90;;;;;;5047497;28;20453;-62
2022/10/16 00:46:26;;;;;;;7.40;5.60;;;17.40;99.90;;;;;;5045717;28;20515;-62
2022/10/16 00:48:57;;;;;;;4.27;3.87;;;17.40;99.90;;;;;;5047709;28;20875;-62
2022/10/16 00:51:29;;;;;;;9.33;2.83;;;16.40;99.90;;;;;;5049094;28;20475;-62
2022/10/16 00:53:56;;;;;;;13.80;5.23;;;17.30;99.90;;;;;;5047297;28;20483;-63
2022/10/16 00:56:23;;;;;;;9.73;5.43;;;17.30;99.90;;;;;;5044606;28;21502;-62
2022/10/16 00:58:50;;;;;;;5.17;4.70;;;17.30;99.90;;;;;;5046304;28;20850;-62
2022/10/16 01:01:17;;;;;;;5.80;4.83;;;;;;;;;;5048179;28;20483;-62
2022/10/16 01:03:45;;;;;;;3.93;3.17;;;17.50;99.90;;;;;;5048326;28;20509;-62
2022/10/16 01:06:29;;;;;;;5.83;5.23;;;17.40;99.90;;;;;;5061628;28;20486;-62
2022/10/16 01:09:21;;;;;;;8.37;5.70;;;17.30;99.90;;;;;;5048756;28;20971;-62
2022/10/16 01:11:59;;;;;;;3.40;3.10;;;17.30;99.90;;;;;;5046681;28;20479;-62
2022/10/16 01:14:32;;;;;;;9.47;3.13;;;17.20;99.90;;;;;;5048023;28;20478;-62
2022/10/16 01:17:03;;;;;;;5.17;4.67;;;17.10;99.90;;;;;;5045353;28;20492;-62
2022/10/16 01:19:50;;;;;;;9.37;3.67;;;17.10;99.90;;;;;;5045639;28;20486;-61
2022/10/16 01:22:20;;;;;;;4.23;3.80;;;17.10;99.90;;;;;;5045082;28;20482;-62
2022/10/16 01:24:50;;;;;;;10.33;3.23;;;17.20;99.90;;;;;;5052219;28;20494;-63
2022/10/16 01:27:26;;;;;;;5.97;3.53;;;17.30;99.90;;;;;;5044965;28;20483;-63
2022/10/16 01:29:54;;;;;;;3.83;3.50;;;17.40;99.90;;;;;;5046841;28;20475;-62
2022/10/16 01:32:33;;;;;;;10.00;3.57;;;17.50;99.90;;;;;;5047963;28;20499;-62
2022/10/16 01:35:03;;;;;;;5.50;5.00;;;17.50;99.90;;;;;;5037612;28;20478;-62
2022/10/16 01:37:36;;;;;;;8.40;2.47;;;17.40;99.90;;;;;;5026773;28;190445;-62
2022/10/16 01:40:08;;;;;;;4.90;4.50;;;17.40;99.90;;;;;;5025797;28;20474;-62
2022/10/16 01:42:41;;;;;;;4.63;3.17;;;17.50;99.90;;;;;;5046042;28;20832;-61
2022/10/16 01:45:11;;;;;;;6.10;4.63;;;17.50;99.90;;;;;;5048326;28;21012;-62
2022/10/16 01:47:39;;;;;;;3.50;3.20;;;17.50;99.90;;;;;;5044527;28;20491;-62
2022/10/16 01:50:08;;;;;;;15.37;4.50;;;17.60;99.90;;;;;;5049951;28;20483;-62
2022/10/16 01:52:38;;;;;;;4.10;2.90;;;17.60;99.90;;;;;;5051581;28;20475;-62
2022/10/16 01:55:08;;;;;;;5.03;4.63;;;17.50;99.90;;;;;;5051944;28;20486;-61
2022/10/16 01:57:41;;;;;;;3.10;2.80;;;17.50;99.90;;;;;;5048896;28;20487;-62
2022/10/16 02:00:11;;;;;;;3.37;3.07;;;17.40;99.90;;;;;;5039595;28;21322;-62
2022/10/16 02:02:41;;;;;;;8.93;2.77;;;17.40;99.90;;;;;;5052024;28;20739;-61
2022/10/16 02:05:16;;;;;;;4.83;4.37;;;17.40;99.90;;;;;;5037633;28;20479;-62
2022/10/16 02:07:43;;;;;;;4.20;3.60;;;17.50;99.90;;;;;;5060851;28;20486;-62
2022/10/16 02:10:10;;;;;;;5.93;3.20;;;17.30;99.90;;;;;;5050751;28;20490;-62
2022/10/16 02:12:41;;;;;;;4.33;3.13;;;17.20;99.90;;;;;;5051867;28;20472;-62
2022/10/16 02:15:09;;;;;;;6.57;4.13;;;17.30;99.90;;;;;;5051795;28;20892;-62
2022/10/16 02:17:36;;;;;;;4.40;3.40;;;17.40;99.90;;;;;;5048293;28;20506;-62
2022/10/16 02:20:03;;;;;;;8.87;5.23;;;17.50;99.90;;;;;;5038244;28;20450;-62
2022/10/16 02:22:33;;;;;;;5.03;2.67;;;17.60;99.90;;;;;;5052644;28;20490;-62
2022/10/16 02:25:07;;;;;;;6.43;5.83;;;17.70;99.90;;;;;;5050712;28;20853;-63
2022/10/16 02:27:39;;;;;;;3.87;2.93;;;17.80;99.90;;;;;;5039339;28;21030;-63
2022/10/16 02:30:13;;;;;;;9.10;3.87;;;17.80;99.90;;;;;;5053851;28;20834;-63
2022/10/16 02:32:42;;;;;;;3.70;3.40;;;17.80;99.90;;;;;;5043839;28;20927;-62
2022/10/16 02:35:11;;;;;;;4.20;3.80;;;17.90;99.90;;;;;;5055175;28;20488;-62
2022/10/16 02:37:39;;;;;;;3.00;2.70;;;17.90;99.90;;;;;;5053255;28;20715;-62
2022/10/16 02:40:07;;;;;;;5.20;4.70;;;17.90;99.90;;;;;;5048358;28;20776;-62
2022/10/16 02:42:35;;;;;;;9.90;2.00;;;17.90;99.90;;;;;;5051594;28;20495;-62
2022/10/16 02:45:02;;;;;;;7.33;4.93;;;17.90;99.90;;;;;;5050000;28;20470;-63
2022/10/16 02:47:30;;;;;;;7.63;2.77;;;17.90;99.90;;;;;;5051604;28;20479;-62
2022/10/16 02:49:56;;;;;;;9.60;4.87;;;17.80;99.90;;;;;;5051166;28;21062;-62
2022/10/16 02:52:23;;;;;;;3.77;2.53;;;17.70;99.90;;;;;;5054769;28;20498;-62
2022/10/16 02:54:50;;;;;;;3.07;2.80;;;17.70;99.90;;;;;;5051111;28;20522;-62
2022/10/16 02:57:17;;;;;;;7.03;2.40;;;17.70;99.90;;;;;;5051759;28;20479;-61
2022/10/16 02:59:43;;;;;;;3.57;3.27;;;17.70;99.90;;;;;;5043819;28;20991;-62
2022/10/16 03:02:10;;;;;;;3.33;3.07;;;17.60;99.90;;;;;;5053704;28;20475;-62
2022/10/16 03:04:38;;;;;;;7.20;1.80;;;17.60;99.90;;;;;;5044210;28;20487;-62
2022/10/16 03:07:05;;;;;;;5.13;4.27;;;17.60;99.90;;;;;;5055808;28;20506;-62
2022/10/16 03:09:32;;;;;;;2.57;2.37;;;17.70;99.90;;;;;;5054286;28;20541;-62
2022/10/16 03:11:58;;;;;;;7.03;2.27;;;17.70;99.90;;;;;;5057832;28;20481;-61
2022/10/16 03:14:25;;;;;;;6.90;2.47;;;17.60;99.90;;;;;;5055219;28;20510;-62
2022/10/16 03:16:52;;;;;;;3.30;3.03;;;17.70;99.90;;;;;;5049700;28;20483;-61
2022/10/16 03:19:19;;;;;;;7.10;2.27;;;17.80;99.90;;;;;;5053570;28;20867;-62
2022/10/16 03:21:47;;;;;;;3.03;2.73;;;17.80;99.90;;;;;;5052783;28;20487;-62
2022/10/16 03:24:14;;;;;;;7.80;2.80;;;17.90;99.90;;;;;;5054313;28;20490;-62
2022/10/16 03:26:41;;;;;;;7.80;2.60;;;17.90;99.90;;;;;;5051112;28;20719;-62
2022/10/16 03:29:07;;;;;;;4.70;4.30;;;17.90;99.90;;;;;;5056996;28;20475;-62
2022/10/16 03:31:34;;;;;;;2.30;2.07;;;17.90;99.90;;;;;;5052794;28;20486;-62
2022/10/16 03:34:01;;;;;;;6.60;2.90;;;17.90;99.90;;;;;;5052933;28;20494;-62
2022/10/16 03:36:27;;;;;;;3.20;2.77;;;18.00;99.90;;;;;;5051108;28;21048;-62
2022/10/16 03:38:56;;;;;;;4.50;4.10;;;18.00;99.90;;;;;;5054828;28;20491;-62
2022/10/16 03:41:22;;;;;;;8.53;1.90;;;17.90;99.90;;;;;;5060256;28;20482;-62
2022/10/16 03:43:49;;;;;;;4.73;2.80;;;17.90;99.90;;;;;;5060566;28;20879;-62
2022/10/16 03:46:16;;;;;;;6.00;4.83;;;17.80;99.90;;;;;;5051392;28;20499;-62
2022/10/16 03:48:42;;;;;;;9.40;3.40;;;17.60;99.90;;;;;;5048773;28;20471;-62
2022/10/16 03:51:09;;;;;;;4.37;3.97;;;17.40;99.90;;;;;;5041542;28;20842;-62
2022/10/16 03:53:36;;;;;;;3.60;3.30;;;17.30;99.90;;;;;;5044863;28;20477;-62
2022/10/16 03:56:04;;;;;;;20.47;5.73;;;17.30;99.90;;;;;;5059480;28;20499;-62
2022/10/16 03:58:31;;;;;;;3.33;3.03;;;17.30;99.90;;;;;;5051423;28;20484;-62
2022/10/16 04:00:58;;;;;;;6.47;5.87;;;17.40;99.90;;;;;;5053342;28;20476;-62
2022/10/16 04:03:24;;;;;;;7.83;2.50;;;17.50;99.90;;;;;;5056045;28;21002;-62
2022/10/16 04:05:51;;;;;;;3.70;3.40;;;17.60;99.90;;;;;;5054933;28;20781;-61
2022/10/16 04:08:18;;;;;;;4.10;3.70;;;17.70;99.90;;;;;;5070125;28;20478;-61
2022/10/16 04:10:45;;;;;;;18.40;3.27;;;17.70;99.90;;;;;;5069041;28;20830;-62
2022/10/16 04:13:13;;;;;;;10.53;3.20;;;17.70;99.90;;;;;;5073582;28;20478;-62
2022/10/16 04:15:40;;;;;;;3.60;3.00;;;17.60;99.90;;;;;;5073116;28;20487;-61
2022/10/16 04:18:07;;;;;;;9.20;4.37;;;17.40;99.90;;;;;;5069042;28;20689;-62
2022/10/16 04:20:34;;;;;;;8.63;3.40;;;17.30;99.90;;;;;;5072692;28;21944;-62
2022/10/16 04:23:01;;;;;;;6.90;6.20;;;17.30;99.90;;;;;;5076603;28;20492;-62
2022/10/16 04:25:27;;;;;;;5.90;1.37;;;17.40;99.90;;;;;;5073649;28;20485;-63
2022/10/16 04:27:54;;;;;;;46.50;7.97;;;17.40;99.90;;;;;;5076007;28;20777;-62
2022/10/16 04:30:23;;;;;;;9.77;3.80;;;17.30;99.90;;;;;;5074695;28;20483;-62
2022/10/16 04:32:50;;;;;;;9.90;3.23;;;17.30;99.90;;;;;;5075564;28;20493;-62
2022/10/16 04:35:18;;;;;;;10.03;8.50;;;17.20;99.90;;;;;;5062637;28;20704;-62
2022/10/16 04:37:44;;;;;;;4.40;4.00;;;17.10;99.90;;;;;;5069484;28;20478;-62
2022/10/16 04:40:11;;;;;;;4.27;2.90;;;17.00;99.90;;;;;;5072491;28;20857;-61
2022/10/16 04:42:38;;;;;;;3.20;2.63;;;16.90;99.90;;;;;;5072885;28;20684;-63
2022/10/16 04:45:07;;;;;;;5.63;5.07;;;16.80;99.90;;;;;;5056745;28;20483;-63
2022/10/16 04:47:35;;;;;;;10.70;3.10;;;16.80;99.90;;;;;;5069987;28;20474;-62
2022/10/16 04:50:02;;;;;;;5.17;4.53;;;16.90;99.90;;;;;;5070670;28;20853;-63
2022/10/16 04:52:31;;;;;;;2.83;2.53;;;17.00;99.90;;;;;;5072418;28;20519;-62
2022/10/16 04:55:00;;;;;;;11.33;5.77;;;17.10;99.90;;;;;;5068716;28;20574;-62
2022/10/16 04:57:27;;;;;;;4.20;2.70;;;17.10;99.90;;;;;;5057925;28;20837;-62
2022/10/16 04:59:54;;;;;;;10.37;5.60;;;17.10;99.90;;;;;;5080888;28;20925;-62
2022/10/16 05:02:21;;;;;;;7.97;2.93;;;17.20;99.90;;;;;;5073254;28;20557;-62
2022/10/16 05:04:49;;;;;;;4.97;4.47;;;17.20;99.90;;;;;;5071172;28;20502;-63
2022/10/16 05:07:16;;;;;;;4.43;4.00;;;17.30;99.90;;;;;;5054047;28;20470;-61
2022/10/16 05:09:42;;;;;;;5.60;3.13;;;17.30;99.90;;;;;;5071951;28;20519;-62
2022/10/16 05:12:09;;;;;;;3.70;3.40;;;17.20;99.90;;;;;;5071307;28;20842;-62
2022/10/16 05:14:36;;;;;;;3.80;3.50;;;17.10;99.90;;;;;;5069940;28;20482;-62
2022/10/16 05:17:03;;;;;;;7.90;5.63;;;17.00;99.90;;;;;;5062595;28;20595;-62
2022/10/16 05:19:29;;;;;;;4.17;3.33;;;17.00;99.90;;;;;;5069807;28;20486;-62
2022/10/16 05:21:57;;;;;;;6.60;6.00;;;17.00;99.90;;;;;;5066426;28;20478;-62
2022/10/16 05:24:24;;;;;;;7.13;3.30;;;17.10;99.90;;;;;;5069155;28;20581;-63
2022/10/16 05:26:51;;;;;;;84.90;8.77;;;17.20;99.90;;;;;;5071492;28;20656;-62
2022/10/16 05:29:18;;;;;;;3.47;3.17;;;17.20;99.90;;;;;;5074196;28;21190;-62
2022/10/16 05:31:45;;;;;;;7.13;3.53;;;17.30;99.90;;;;;;5071709;28;20486;-62
2022/10/16 05:34:11;;;;;;;9.00;3.97;;;17.20;99.90;;;;;;5075743;28;20494;-62
2022/10/16 05:36:38;;;;;;;3.87;3.30;;;17.30;99.90;;;;;;5073612;28;20490;-62
2022/10/16 05:39:06;;;;;;;12.87;4.70;;;17.30;99.90;;;;;;5075644;28;21031;-62
2022/10/16 05:41:33;;;;;;;3.90;3.40;;;17.30;99.90;;;;;;5075245;28;20489;-62
2022/10/16 05:43:59;;;;;;;5.73;5.13;;;17.30;99.90;;;;;;5076125;28;20991;-62
2022/10/16 05:46:26;;;;;;;8.80;4.30;;;17.20;99.90;;;;;;5059886;28;20486;-62
2022/10/16 05:48:54;;;;;;;5.23;4.77;;;17.10;99.90;;;;;;5072715;28;20486;-62
2022/10/16 05:51:20;;;;;;;3.27;2.90;;;17.10;99.90;;;;;;5076636;28;20582;-62
2022/10/16 05:53:47;;;;;;;10.23;3.23;;;17.10;99.90;;;;;;5075436;28;20479;-62
2022/10/16 05:56:15;;;;;;;6.70;6.07;;;17.20;99.90;;;;;;5070750;28;20792;-62
2022/10/16 05:58:44;;;;;;;5.00;4.17;;;17.20;99.90;;;;;;5075306;28;20470;-62
2022/10/16 06:01:12;;;;;;;7.33;4.13;;;17.20;99.90;;;;;;5071564;28;20486;-62
2022/10/16 06:03:39;;;;;;;48.83;5.17;;;17.20;99.90;;;;;;5062087;28;20625;-62
2022/10/16 06:06:10;;;;;;;7.40;6.67;;;17.10;99.90;;;;;;5070220;28;20486;-62
2022/10/16 06:08:36;;;;;;;4.30;3.90;;;17.10;99.90;;;;;;5073610;28;20559;-62
2022/10/16 06:11:04;;;;;;;6.30;5.67;;;17.10;99.90;;;;;;5075631;28;20482;-62
2022/10/16 06:13:32;;;;;;;3.30;3.00;;;17.20;99.90;;;;;;5075521;28;20819;-63
2022/10/16 06:16:00;;;;;;;7.17;6.47;;;17.30;99.90;;;;;;5060960;28;20478;-62
2022/10/16 06:18:28;;;;;;;3.90;3.47;;;17.30;99.90;;;;;;5073009;28;21001;-62
2022/10/16 06:20:55;;;;;;;11.40;7.13;;;17.30;99.90;;;;;;5075502;28;20740;-62
2022/10/16 06:23:22;;;;;;;17.23;5.33;;;17.30;99.90;;;;;;5076733;28;20988;-62
2022/10/16 06:25:49;;;;;;;6.50;5.23;;;17.40;99.90;;;;;;5074466;28;20490;-62
2022/10/16 06:28:16;;;;;;;10.87;4.93;;;17.40;99.90;;;;;;5072565;28;20481;-62
2022/10/16 06:30:44;;;;;;;10.80;6.63;;;17.40;99.90;;;;;;5074919;28;20525;-62
2022/10/16 06:33:11;;;;;;;4.17;3.87;;;17.40;99.90;;;;;;5075202;28;20747;-62
2022/10/16 06:35:38;;;;;;;6.50;3.03;;;17.30;99.90;;;;;;5064347;28;20479;-62
2022/10/16 06:38:04;;;;;;;11.93;5.50;;;17.20;99.90;;;;;;5080515;28;20987;-62
2022/10/16 06:40:31;;;;;;;2.90;2.13;;;17.20;99.90;;;;;;5074707;28;20521;-62
2022/10/16 06:42:58;;;;;;;11.17;3.57;;;17.20;99.90;;;;;;5072301;28;20611;-62
2022/10/16 06:45:25;;;;;;;2.90;2.60;;;17.30;99.90;;;;;;5074175;28;20486;-63
2022/10/16 06:47:53;;;;;;;4.10;3.80;;;17.30;99.90;;;;;;5066877;28;20570;-62
2022/10/16 06:50:20;;;;;;;3.13;2.83;;;17.50;99.90;;;;;;5069229;28;20486;-62
2022/10/16 06:52:47;;;;;;;4.60;3.87;;;17.60;99.90;;;;;;5074859;28;20756;-63
2022/10/16 06:55:14;;;;;;;7.50;4.00;;;17.70;99.90;;;;;;5074404;28;20837;-62
2022/10/16 06:57:41;;;;;;;3.93;3.63;;;17.90;99.90;;;;;;5072099;28;21035;-62
2022/10/16 07:00:08;;;;;;;6.93;6.10;;;18.00;99.90;;;;;;5061956;28;20536;-63
2022/10/16 07:02:35;;;;;;;9.60;6.93;;;18.00;99.90;;;;;;5073652;28;20487;-62
2022/10/16 07:05:04;;;;;;;12.20;8.90;;;17.60;99.90;;;;;;5073371;28;20489;-62
2022/10/16 07:07:30;;;;;;;4.00;3.57;;;17.40;99.90;;;;;;5066247;28;20482;-62
2022/10/16 07:09:57;;;;;;;6.63;5.93;;;17.40;99.90;;;;;;5073064;28;20493;-63
2022/10/16 07:12:24;;;;;;;17.53;3.87;;;17.30;99.90;;;;;;5074868;28;20478;-62
2022/10/16 07:14:52;;;;;;;7.47;4.80;;;17.40;99.90;;;;;;5068531;28;20485;-62
2022/10/16 07:17:18;;;;;;;7.97;4.83;;;18.00;99.90;;;;;;5074375;28;20700;-62
2022/10/16 07:19:45;;;;;;;14.20;4.03;;;18.40;99.90;;;;;;5073955;28;20897;-63
2022/10/16 07:22:14;;;;;;;3.67;3.37;;;18.70;99.90;;;;;;5074348;28;20979;-62
2022/10/16 07:24:40;;;;;;;5.30;4.90;;;18.80;99.90;;;;;;5069726;28;20741;-62
2022/10/16 07:27:07;;;;;;;11.83;4.97;;;18.90;99.90;;;;;;5070246;28;20977;-62
2022/10/16 07:29:34;;;;;;;9.73;4.10;;;19.00;99.90;;;;;;5074120;28;20475;-62
2022/10/16 07:32:00;;;;;;;9.93;8.20;;;19.00;99.90;;;;;;5073795;28;20470;-63
2022/10/16 07:34:27;;;;;;;30.17;14.33;;;19.00;99.90;;;;;;5075431;28;20462;-63
2022/10/16 07:36:54;;;;;;;10.57;8.47;;;18.90;99.90;;;;;;5069448;28;20456;-63
2022/10/16 07:39:23;;;;;;;12.43;9.93;;;18.90;99.90;;;;;;5070922;28;20978;-62
2022/10/16 07:41:49;;;;;;;11.90;6.40;;;18.90;99.90;;;;;;5070112;28;20475;-62
2022/10/16 07:44:17;;;;;;;6.00;5.50;;;18.90;99.90;;;;;;5074177;28;20821;-63
2022/10/16 07:46:43;;;;;;;7.90;6.00;;;18.80;99.90;;;;;;5071149;28;20482;-62
2022/10/16 07:49:10;;;;;;;5.80;4.70;;;18.90;99.90;;;;;;5070992;28;20510;-62
2022/10/16 07:51:38;;;;;;;4.80;4.40;;;18.80;99.90;;;;;;5071206;28;20491;-62
2022/10/16 07:54:04;;;;;;;11.07;5.57;;;18.70;99.90;;;;;;5074013;28;20482;-63
2022/10/16 07:56:33;;;;;;;11.20;4.43;;;18.60;99.90;;;;;;5071678;28;20527;-62
2022/10/16 07:59:00;;;;;;;10.97;6.90;;;18.50;99.90;;;;;;5073323;28;20493;-62
2022/10/16 08:01:26;;;;;;;4.73;4.33;;;18.50;99.90;;;;;;5071713;28;20438;-62
2022/10/16 08:03:53;;;;;;;10.53;5.60;;;18.60;99.90;;;;;;5059657;28;20478;-62
2022/10/16 08:06:22;;;;;;;5.53;5.03;;;18.60;99.90;;;;;;5070273;28;20486;-62
2022/10/16 08:08:49;;;;;;;5.40;4.90;;;18.60;99.90;;;;;;5072909;28;21089;-62
2022/10/16 08:11:16;;;;;;;10.93;4.77;;;18.60;99.90;;;;;;5070038;28;20498;-62
2022/10/16 08:13:44;;;;;;;6.13;5.50;;;18.60;99.90;;;;;;5071162;28;20539;-62
2022/10/16 08:16:11;;;;;;;7.10;5.40;;;18.60;99.90;;;;;;5074350;28;20489;-62
2022/10/16 08:18:39;;;;;;;9.37;4.90;;;18.60;99.90;;;;;;5072047;28;20483;-62
2022/10/16 08:21:07;;;;;;;8.30;5.90;;;18.70;99.90;;;;;;5075464;28;21203;-62
2022/10/16 08:23:35;;;;;;;6.20;4.20;;;18.80;99.90;;;;;;5076991;28;20575;-62
2022/10/16 08:26:04;;;;;;;11.93;6.50;;;18.80;99.90;;;;;;5076220;28;20482;-62
2022/10/16 08:28:31;;;;;;;5.03;4.50;;;19.00;99.90;;;;;;5060638;28;20481;-62
2022/10/16 08:31:07;;;;;;;7.10;5.87;;;19.30;99.90;;;;;;5060521;28;20471;-62
2022/10/16 08:33:35;;;;;;;5.70;3.90;;;19.30;99.90;;;;;;5062999;28;20500;-62
2022/10/16 08:36:02;;;;;;;8.40;6.97;;;19.40;99.90;;;;;;5066985;28;20559;-62
2022/10/16 08:38:29;;;;;;;5.60;4.50;;;19.70;99.90;;;;;;5071354;28;20478;-61
2022/10/16 08:41:14;;;;;;;12.27;5.40;;;19.70;99.90;;;;;;5071951;28;20829;-62
2022/10/16 08:43:55;;;;;;;7.20;4.90;;;19.80;99.90;;;;;;5061696;28;20482;-62
2022/10/16 08:46:44;;;;;;;6.30;5.60;;;19.80;99.90;;;;;;5071747;28;20494;-62
2022/10/16 08:49:14;;;;;;;6.00;4.97;;;20.00;99.90;;;;;;5067557;28;20486;-63
2022/10/16 08:51:41;;;;;;;7.73;5.30;;;20.00;99.90;;;;;;5061451;28;20577;-63
2022/10/16 08:54:28;;;;;;;5.90;5.40;;;20.00;99.90;;;;;;5072479;28;20464;-63
2022/10/16 08:56:56;;;;;;;6.10;5.50;;;20.10;99.90;;;;;;5066904;28;20461;-63
2022/10/16 08:59:23;;;;;;;6.97;5.10;;;19.90;99.90;;;;;;5072429;28;21059;-63
2022/10/16 09:01:52;;;;;;;4.47;3.77;;;19.80;99.90;;;;;;5073195;28;20494;-63
2022/10/16 09:04:44;;;;;;;5.20;4.63;;;19.90;99.90;;;;;;5075983;28;20513;-63
2022/10/16 09:07:16;;;;;;;10.93;5.33;;;;;;;;;;5068518;28;20473;-63
2022/10/16 09:10:02;;;;;;;7.00;5.00;;;20.00;99.90;;;;;;5073469;28;20558;-63
2022/10/16 09:12:37;;;;;;;4.97;4.57;;;19.90;99.90;;;;;;5073261;28;21058;-63
2022/10/16 09:15:16;;;;;;;6.20;5.60;;;20.00;99.90;;;;;;5073072;28;20481;-63
2022/10/16 09:17:50;;;;;;;7.27;5.23;;;20.00;99.90;;;;;;5060742;28;21061;-63
2022/10/16 09:20:33;;;;;;;5.33;4.83;;;19.90;99.90;;;;;;5073942;28;20836;-63
2022/10/16 09:23:13;;;;;;;7.03;6.33;;;19.90;99.90;;;;;;5062181;28;20474;-63
2022/10/16 09:25:42;;;;;;;8.03;5.23;;;19.80;99.90;;;;;;5059884;28;20474;-64
2022/10/16 09:28:09;;;;;;;8.20;6.57;;;19.90;99.90;;;;;;5068075;28;20565;-63
2022/10/16 09:30:36;;;;;;;5.13;4.47;;;19.90;99.90;;;;;;5071484;28;20544;-63
2022/10/16 09:33:05;;;;;;;20.37;7.50;;;20.10;99.90;;;;;;5072594;28;20474;-63
2022/10/16 09:35:37;;;;;;;8.97;4.60;;;20.20;99.90;;;;;;5070211;28;20486;-63
2022/10/16 09:38:04;;;;;;;14.80;8.70;;;20.30;99.90;;;;;;5067315;28;20971;-64
2022/10/16 09:40:34;;;;;;;13.40;4.87;;;20.30;99.90;;;;;;5070247;28;20481;-63
2022/10/16 09:43:10;;;;;;;11.20;8.60;;;20.20;99.90;;;;;;5059527;28;20932;-64
2022/10/16 09:45:37;;;;;;;9.20;5.37;;;20.10;99.90;;;;;;5061498;28;21030;-63
2022/10/16 09:48:12;;;;;;;13.47;8.03;;;20.00;99.90;;;;;;5064261;28;20928;-63
2022/10/16 09:50:38;;;;;;;8.03;5.87;;;20.00;99.90;;;;;;5065630;28;20696;-63
2022/10/16 09:53:06;;;;;;;10.43;7.00;;;20.20;99.90;;;;;;5073047;28;20541;-64
2022/10/16 09:55:33;;;;;;;7.20;6.10;;;20.20;99.90;;;;;;5060659;28;20486;-63
2022/10/16 09:58:00;;;;;;;9.90;8.47;;;20.50;99.90;;;;;;5071153;28;20851;-64
2022/10/16 10:00:26;;;;;;;9.50;4.77;;;20.70;99.90;;;;;;5071098;28;20485;-64
2022/10/16 10:02:55;;;;;;;12.13;8.90;;;20.70;99.90;;;;;;5070740;28;20475;-63
2022/10/16 10:05:25;;;;;;;15.63;7.40;;;21.00;99.90;;;;;;5068078;28;20543;-63
2022/10/16 10:07:58;;;;;;;10.77;5.37;;;21.00;99.90;;;;;;5067131;28;20514;-64
2022/10/16 10:10:26;;;;;;;7.13;5.23;;;20.90;99.90;;;;;;5076492;28;20882;-64
2022/10/16 10:12:54;;;;;;;8.63;7.23;;;20.90;99.90;;;;;;5072037;28;20582;-64
2022/10/16 10:15:23;;;;;;;11.70;6.60;;;21.00;99.90;;;;;;5073785;28;20565;-63
2022/10/16 10:17:52;;;;;;;8.20;6.80;;;21.00;99.90;;;;;;5072169;28;20482;-64
2022/10/16 10:20:28;;;;;;;8.37;6.27;;;21.20;99.90;;;;;;5072271;28;20482;-64
2022/10/16 10:22:56;;;;;;;8.87;7.27;;;21.30;99.90;;;;;;5075169;28;20811;-64
2022/10/16 10:25:33;;;;;;;7.00;5.83;;;21.50;99.90;;;;;;5075996;28;20486;-64
2022/10/16 10:28:32;;;;;;;10.30;8.27;;;21.70;99.90;;;;;;5061311;28;20495;-64
2022/10/16 10:31:04;;;;;;;10.20;5.80;;;21.50;99.90;;;;;;5052973;28;21655;-64
2022/10/16 10:33:40;;;;;;;6.43;4.80;;;21.30;99.90;;;;;;5075299;28;20478;-63
2022/10/16 10:36:19;;;;;;;16.03;8.43;;;21.20;99.90;;;;;;5073891;28;20661;-64
2022/10/16 10:38:51;;;;;;;8.93;7.50;;;21.10;99.90;;;;;;5061054;28;20453;-64
2022/10/16 10:41:50;;;;;;;20.10;5.50;;;21.20;99.90;;;;;;5076461;28;20891;-64
2022/10/16 10:44:21;;;;;;;8.03;7.23;;;;;;;;;;5027771;28;20467;-64
2022/10/16 10:46:52;;;;;;;9.87;6.53;;;21.30;99.90;;;;;;5069181;28;20745;-64
2022/10/16 10:49:48;;;;;;;9.27;6.37;;;21.30;99.90;;;;;;5064794;28;20488;-64
2022/10/16 10:52:39;;;;;;;7.03;6.10;;;21.40;99.90;;;;;;5066619;28;20497;-63
2022/10/16 10:55:18;;;;;;;10.20;4.73;;;21.40;99.90;;;;;;5072989;28;20977;-64
2022/10/16 10:58:08;;;;;;;10.50;6.93;;;21.40;99.90;;;;;;5058674;28;20749;-64
2022/10/16 11:00:45;;;;;;;4.73;4.17;;;21.40;99.90;;;;;;5074653;28;20445;-64
2022/10/16 11:03:28;;;;;;;7.40;6.63;;;21.40;99.90;;;;;;5064736;28;20478;-63
2022/10/16 11:05:59;;;;;;;13.20;7.87;;;21.50;99.90;;;;;;5068230;28;21267;-64
2022/10/16 11:08:33;;;;;;;10.57;5.80;;;21.60;99.90;;;;;;5072311;28;20487;-64
2022/10/16 11:11:04;;;;;;;10.63;7.33;;;21.70;99.90;;;;;;5073869;28;20478;-64
2022/10/16 11:13:36;;;;;;;7.50;5.97;;;21.70;99.90;;;;;;5074712;28;20508;-64
2022/10/16 11:16:12;;;;;;;10.60;5.17;;;21.60;99.90;;;;;;5059029;28;20482;-64
2022/10/16 11:18:48;;;;;;;7.20;5.20;;;21.50;99.90;;;;;;5073781;28;20486;-64
2022/10/16 11:21:20;;;;;;;18.43;6.47;;;21.20;99.90;;;;;;5062905;28;20508;-64
2022/10/16 11:23:54;;;;;;;7.37;5.90;;;21.20;99.90;;;;;;5064456;28;21026;-64
2022/10/16 11:26:25;;;;;;;8.03;5.63;;;21.20;99.90;;;;;;5052179;28;20834;-64
2022/10/16 11:28:54;;;;;;;12.23;7.70;;;21.30;99.90;;;;;;5066518;28;20837;-63
2022/10/16 11:31:29;;;;;;;9.50;5.80;;;21.20;99.90;;;;;;5064579;28;20479;-64
2022/10/16 11:34:02;;;;;;;13.63;6.10;;;21.20;99.90;;;;;;5068769;28;20474;-64
2022/10/16 11:36:34;;;;;;;5.97;4.83;;;21.10;99.90;;;;;;5067220;28;20486;-64
2022/10/16 11:39:12;;;;;;;10.60;8.20;;;21.10;99.90;;;;;;5071719;28;20790;-64
2022/10/16 11:41:46;;;;;;;10.73;5.73;;;21.20;99.90;;;;;;5075038;28;20486;-64
2022/10/16 11:44:28;;;;;;;8.53;5.80;;;21.20;99.90;;;;;;5073839;28;20502;-64
2022/10/16 11:47:23;;;;;;;9.47;6.93;;;21.20;99.90;;;;;;5072270;28;20822;-64
2022/10/16 11:49:54;;;;;;;11.90;8.07;;;21.20;99.90;;;;;;5060965;28;20478;-64
2022/10/16 11:52:26;;;;;;;12.33;6.67;;;21.00;99.90;;;;;;5070785;28;20474;-64
2022/10/16 11:55:00;;;;;;;7.20;4.30;;;20.90;99.90;;;;;;5071499;28;20494;-64
2022/10/16 11:57:32;;;;;;;8.27;6.27;;;20.90;99.90;;;;;;5069098;28;20967;-64
2022/10/16 12:00:04;;;;;;;12.67;7.70;;;20.90;99.90;;;;;;5069398;28;21611;-64
2022/10/16 12:02:44;;;;;;;12.93;6.00;;;20.90;99.90;;;;;;5071552;28;20531;-64
2022/10/16 12:05:21;;;;;;;8.27;6.63;;;20.80;99.90;;;;;;5075997;28;21318;-64
2022/10/16 12:07:57;;;;;;;10.43;6.70;;;20.80;99.90;;;;;;5057270;28;20460;-64
2022/10/16 12:10:27;;;;;;;12.03;5.70;;;20.80;99.90;;;;;;5073067;28;20551;-64
2022/10/16 12:12:54;;;;;;;13.47;8.07;;;20.80;99.90;;;;;;5069487;28;20514;-64
2022/10/16 12:15:25;;;;;;;11.33;7.00;;;20.80;99.90;;;;;;5072631;28;20487;-64
2022/10/16 12:17:52;;;;;;;7.20;5.60;;;20.90;99.90;;;;;;5068408;28;20849;-64
2022/10/16 12:20:25;;;;;;;7.10;5.70;;;20.90;99.90;;;;;;5075950;28;20468;-64
2022/10/16 12:22:55;;;;;;;8.60;7.13;;;20.90;99.90;;;;;;5066402;28;20449;-64
2022/10/16 12:25:27;;;;;;;14.80;6.33;;;20.90;99.90;;;;;;5070113;28;20516;-64
2022/10/16 12:27:59;;;;;;;19.00;9.60;;;20.90;99.90;;;;;;5069423;28;20449;-64
2022/10/16 12:30:28;;;;;;;9.83;5.90;;;20.90;99.90;;;;;;5072684;28;20441;-63
2022/10/16 12:32:57;;;;;;;13.90;9.00;;;20.80;99.90;;;;;;5057613;28;20475;-64
2022/10/16 12:35:28;;;;;;;9.23;6.60;;;20.80;99.90;;;;;;5068968;28;20891;-64
2022/10/16 12:38:05;;;;;;;15.73;8.00;;;20.80;99.90;;;;;;5063299;28;20461;-64
2022/10/16 12:40:35;;;;;;;9.57;6.80;;;20.80;99.90;;;;;;5071971;28;20478;-64
2022/10/16 12:43:13;;;;;;;12.93;9.90;;;20.80;99.90;;;;;;5055106;28;20494;-64
2022/10/16 12:45:40;;;;;;;12.07;8.00;;;20.80;99.90;;;;;;5060937;28;20457;-64
2022/10/16 12:48:22;;;;;;;12.80;7.97;;;20.70;99.90;;;;;;5060130;28;20482;-64
2022/10/16 12:50:49;;;;;;;8.97;7.00;;;20.70;99.90;;;;;;5055601;28;20738;-63
2022/10/16 12:53:22;;;;;;;9.33;7.27;;;20.60;99.90;;;;;;5065067;28;20749;-63
2022/10/16 12:56:02;;;;;;;15.07;7.27;;;20.70;99.90;;;;;;5050380;28;20483;-64
2022/10/16 12:58:44;;;;;;;11.27;5.70;;;20.60;99.90;;;;;;5071150;28;20489;-64
2022/10/16 13:01:20;;;;;;;13.53;7.60;;;20.70;99.90;;;;;;5067158;28;20477;-64